createdAt,value
2022-11-16T00:02:13.157Z,82.71
2022-11-16T00:06:14.524Z,83.15
2022-11-16T00:10:14.631Z,83.66
2022-11-16T00:14:16.330Z,84.14
2022-11-16T00:18:15.985Z,84.91
2022-11-16T00:22:15.539Z,84.65
2022-11-16T00:26:15.356Z,84.35
2022-11-16T00:30:17.991Z,84.44
2022-11-16T00:34:18.145Z,84.57
2022-11-16T00:38:17.726Z,84.45
2022-11-16T00:42:17.103Z,84.38
2022-11-16T00:46:18.856Z,84.40
2022-11-16T00:50:18.829Z,84.74
2022-11-16T00:54:18.403Z,84.76
2022-11-16T00:58:17.857Z,84.19
2022-11-16T01:02:20.144Z,84.56
2022-11-16T01:06:19.966Z,84.32
2022-11-16T01:10:22.092Z,85.14
2022-11-16T01:14:21.620Z,84.67
2022-11-16T01:18:23.379Z,84.85
2022-11-16T01:22:23.044Z,84.96
2022-11-16T01:26:22.610Z,85.41
2022-11-16T01:30:22.339Z,85.44
2022-11-16T01:34:26.245Z,85.61
2022-11-16T01:38:29.815Z,86.33
2022-11-16T01:42:33.190Z,86.31
2022-11-16T01:46:33.445Z,86.00
2022-11-16T01:50:36.353Z,86.30
2022-11-16T01:54:39.559Z,85.60
2022-11-16T01:58:39.543Z,86.04
2022-11-16T02:02:40.685Z,85.71
2022-11-16T02:06:59.877Z,86.72
2022-11-16T02:11:10.833Z,87.73
2022-11-16T02:15:20.311Z,88.14
2022-11-16T02:19:52.591Z,88.14
2022-11-16T02:24:23.999Z,88.58
2022-11-16T02:28:34.624Z,88.61
2022-11-16T02:32:39.469Z,88.80
2022-11-16T02:36:42.202Z,88.75
2022-11-16T02:40:46.393Z,89.17
2022-11-16T02:44:51.755Z,89.59
2022-11-16T02:48:57.945Z,91.17
2022-11-16T02:52:58.226Z,91.38
2022-11-16T02:57:19.544Z,91.09
2022-11-16T03:01:29.204Z,90.47
2022-11-16T03:05:37.328Z,90.47
2022-11-16T03:09:40.782Z,90.48
2022-11-16T03:13:42.048Z,90.83
2022-11-16T03:17:45.689Z,90.62
2022-11-16T03:21:50.682Z,91.75
2022-11-16T03:25:54.490Z,92.25
2022-11-16T03:30:04.338Z,91.78
2022-11-16T03:34:11.739Z,91.55
2022-11-16T03:38:16.403Z,91.45
2022-11-16T03:42:16.429Z,91.27
2022-11-16T03:46:17.357Z,91.07
2022-11-16T03:50:17.696Z,90.34
2022-11-16T03:54:19.842Z,90.15
2022-11-16T03:58:19.900Z,90.12
2022-11-16T04:02:19.732Z,89.63
2022-11-16T04:06:37.044Z,89.73
2022-11-16T04:10:55.477Z,89.19
2022-11-16T04:15:11.424Z,89.10
2022-11-16T04:19:27.533Z,88.92
2022-11-16T04:23:43.380Z,89.10
2022-11-16T04:28:01.884Z,88.53
2022-11-16T04:32:18.018Z,88.17
2022-11-16T04:36:36.966Z,87.45
2022-11-16T04:40:37.304Z,87.50
2022-11-16T04:44:55.569Z,88.14
2022-11-16T04:48:56.297Z,88.18
2022-11-16T04:52:55.632Z,88.27
2022-11-16T04:56:55.331Z,88.06
2022-11-16T05:00:58.229Z,87.86
2022-11-16T05:04:58.488Z,87.67
2022-11-16T05:08:58.607Z,88.66
2022-11-16T05:12:57.890Z,88.85
2022-11-16T05:17:01.060Z,89.00
2022-11-16T05:21:02.769Z,88.93
2022-11-16T05:25:02.969Z,89.30
2022-11-16T05:29:05.939Z,88.78
2022-11-16T05:33:07.474Z,89.20
2022-11-16T05:37:08.291Z,89.23
2022-11-16T05:41:07.739Z,89.17
2022-11-16T05:45:08.520Z,89.57
2022-11-16T05:49:10.182Z,89.43
2022-11-16T05:53:11.971Z,89.21
2022-11-16T05:57:12.707Z,89.21
2022-11-16T06:01:12.390Z,88.96
2022-11-16T06:05:14.506Z,90.45
2022-11-16T06:09:16.550Z,90.48
2022-11-16T06:13:16.567Z,90.10
2022-11-16T06:17:16.294Z,90.09
2022-11-16T06:21:20.833Z,90.12
2022-11-16T06:25:20.458Z,89.99
2022-11-16T06:29:20.255Z,89.80
2022-11-16T06:33:20.442Z,90.41
2022-11-16T06:37:24.725Z,90.20
2022-11-16T06:41:31.884Z,90.00
2022-11-16T06:45:32.716Z,90.70
2022-11-16T06:49:33.005Z,91.69
2022-11-16T06:53:35.972Z,91.78
2022-11-16T06:57:36.356Z,92.23
2022-11-16T07:01:37.112Z,92.12
2022-11-16T07:05:42.861Z,91.95
2022-11-16T07:09:46.100Z,92.44
2022-11-16T07:13:52.870Z,92.31
2022-11-16T07:17:57.309Z,91.91
2022-11-16T07:21:57.280Z,92.28
2022-11-16T07:26:02.219Z,92.55
2022-11-16T07:30:02.530Z,92.40
2022-11-16T07:34:04.332Z,91.67
2022-11-16T07:38:21.689Z,91.41
2022-11-16T07:42:46.952Z,91.97
2022-11-16T07:46:50.445Z,91.30
2022-11-16T07:50:51.070Z,90.84
2022-11-16T07:54:51.683Z,90.83
2022-11-16T07:58:53.581Z,91.45
2022-11-16T08:02:53.720Z,92.66
2022-11-16T08:06:55.138Z,92.35
2022-11-16T08:10:54.858Z,92.48
2022-11-16T08:14:57.075Z,93.27
2022-11-16T08:18:56.556Z,93.86
2022-11-16T08:23:01.480Z,93.42
2022-11-16T08:27:03.881Z,93.16
2022-11-16T08:31:30.257Z,92.82
2022-11-16T08:35:40.284Z,92.53
2022-11-16T08:39:42.677Z,93.38
2022-11-16T08:43:57.533Z,93.54
2022-11-16T08:48:20.153Z,94.44
2022-11-16T08:52:41.397Z,95.20
2022-11-16T08:57:09.107Z,96.42
2022-11-16T09:01:12.239Z,95.77
2022-11-16T09:05:42.500Z,94.98
2022-11-16T09:10:08.117Z,94.19
2022-11-16T09:14:24.435Z,94.30
2022-11-16T09:18:38.045Z,94.03
2022-11-16T09:22:57.208Z,93.44
2022-11-16T09:27:15.062Z,92.65
2022-11-16T09:31:17.665Z,94.20
2022-11-16T09:35:53.934Z,95.09
2022-11-16T09:40:38.605Z,95.49
2022-11-16T09:45:16.735Z,94.20
2022-11-16T09:49:48.247Z,94.04
2022-11-16T09:53:53.070Z,93.51
2022-11-16T09:57:59.157Z,93.35
2022-11-16T10:02:07.793Z,93.30
2022-11-16T10:06:11.594Z,93.49
2022-11-16T10:10:16.227Z,91.60
2022-11-16T10:14:50.240Z,90.59
2022-11-16T10:19:10.626Z,90.21
2022-11-16T10:23:25.940Z,89.22
2022-11-16T10:27:44.914Z,89.33
2022-11-16T10:32:02.693Z,89.07
2022-11-16T10:36:09.588Z,90.56
2022-11-16T10:40:27.334Z,90.77
2022-11-16T10:44:43.614Z,90.63
2022-11-16T10:48:56.129Z,91.02
2022-11-16T10:52:56.019Z,90.18
2022-11-16T10:57:08.611Z,89.39
2022-11-16T11:01:13.007Z,90.30
2022-11-16T11:05:25.511Z,90.09
2022-11-16T11:09:30.562Z,90.80
2022-11-16T11:13:34.341Z,90.25
2022-11-16T11:17:36.775Z,90.60
2022-11-16T11:21:41.713Z,89.56
2022-11-16T11:25:44.505Z,88.87
2022-11-16T11:29:52.951Z,89.17
2022-11-16T11:33:56.455Z,89.89
2022-11-16T11:38:07.974Z,89.87
2022-11-16T11:42:22.191Z,90.22
2022-11-16T11:46:50.217Z,88.20
2022-11-16T11:50:55.342Z,89.51
2022-11-16T11:55:19.663Z,88.91
2022-11-16T11:59:28.526Z,88.06
2022-11-16T12:03:55.326Z,88.07
2022-11-16T12:08:14.393Z,87.74
2022-11-16T12:12:29.891Z,87.59
2022-11-16T12:16:37.635Z,87.82
2022-11-16T12:20:47.500Z,87.29
2022-11-16T12:24:59.511Z,88.26
2022-11-16T12:29:30.526Z,87.54
2022-11-16T12:33:41.060Z,86.76
2022-11-16T12:37:49.146Z,87.35
2022-11-16T12:42:32.855Z,87.43
2022-11-16T12:46:44.484Z,88.14
2022-11-16T12:50:53.665Z,89.16
2022-11-16T12:55:25.914Z,89.06
2022-11-16T12:59:51.115Z,87.70
2022-11-16T13:04:00.773Z,86.92
2022-11-16T13:08:11.610Z,86.59
2022-11-16T13:12:17.988Z,86.48
2022-11-16T13:16:19.000Z,85.32
2022-11-16T13:20:33.433Z,85.93
2022-11-16T13:24:47.162Z,85.51
2022-11-16T13:28:55.881Z,85.74
2022-11-16T13:33:19.008Z,86.38
2022-11-16T13:37:48.670Z,87.36
2022-11-16T13:41:50.485Z,87.87
2022-11-16T13:46:03.152Z,88.09
2022-11-16T13:50:05.785Z,87.91
2022-11-16T13:54:44.761Z,88.09
2022-11-16T13:58:40.789Z,88.52
2022-11-16T14:02:44.182Z,88.55
2022-11-16T14:07:03.423Z,88.46
2022-11-16T14:11:07.188Z,87.54
2022-11-16T14:15:16.281Z,86.52
2022-11-16T14:19:54.732Z,85.31
2022-11-16T14:24:15.731Z,86.42
2022-11-16T14:28:35.350Z,86.71
2022-11-16T14:32:45.422Z,86.42
2022-11-16T14:36:47.739Z,85.25
2022-11-16T14:40:52.593Z,83.97
2022-11-16T14:45:02.663Z,83.59
2022-11-16T14:49:05.337Z,82.52
2022-11-16T14:53:08.882Z,82.30
2022-11-16T14:57:15.219Z,83.64
2022-11-16T15:01:16.804Z,84.52
2022-11-16T15:05:21.582Z,84.18
2022-11-16T15:09:28.033Z,84.57
2022-11-16T15:13:28.032Z,83.08
2022-11-16T15:17:33.263Z,82.49
2022-11-16T15:21:35.812Z,81.99
2022-11-16T15:25:38.991Z,82.44
2022-11-16T15:29:39.453Z,83.03
2022-11-16T15:33:43.281Z,83.03
2022-11-16T15:37:45.358Z,83.34
2022-11-16T15:41:45.703Z,83.33
2022-11-16T15:45:57.769Z,83.01
2022-11-16T15:50:00.810Z,82.75
2022-11-16T15:54:24.194Z,82.25
2022-11-16T15:58:26.832Z,83.48
2022-11-16T16:02:29.340Z,84.86
2022-11-16T16:06:47.069Z,84.41
2022-11-16T16:10:59.972Z,84.80
2022-11-16T16:15:22.495Z,84.96
2022-11-16T16:19:37.447Z,86.71
2022-11-16T16:23:46.990Z,87.23
2022-11-16T16:27:46.855Z,87.04
2022-11-16T16:31:46.726Z,87.81
2022-11-16T16:35:49.392Z,89.25
2022-11-16T16:39:49.145Z,89.57
2022-11-16T16:43:48.833Z,89.69
2022-11-16T16:47:48.838Z,91.44
2022-11-16T16:51:50.743Z,92.50
2022-11-16T16:55:50.509Z,92.38
2022-11-16T16:59:50.199Z,90.96
2022-11-16T17:03:50.014Z,89.91
2022-11-16T17:07:52.010Z,89.33
2022-11-16T17:11:51.771Z,88.34
2022-11-16T17:15:51.519Z,90.32
2022-11-16T17:19:51.278Z,93.94
2022-11-16T17:23:53.368Z,97.17
2022-11-16T17:27:53.111Z,98.74
2022-11-16T17:31:52.308Z,100.00
2022-11-16T17:35:58.565Z,99.96
2022-11-16T17:40:00.431Z,100.00
2022-11-16T17:43:59.665Z,98.89
2022-11-16T17:47:59.369Z,96.80
2022-11-16T17:51:58.475Z,94.95
2022-11-16T17:56:00.240Z,93.50
2022-11-16T17:59:59.709Z,93.24
2022-11-16T18:03:59.067Z,89.78
2022-11-16T18:07:59.571Z,86.97
2022-11-16T18:12:01.371Z,86.05
2022-11-16T18:16:05.094Z,84.90
2022-11-16T18:20:04.829Z,84.21
2022-11-16T18:24:04.376Z,83.69
2022-11-16T18:28:05.847Z,83.59
2022-11-16T18:32:05.615Z,84.04
2022-11-16T18:36:06.183Z,85.03
2022-11-16T18:40:06.714Z,85.64
2022-11-16T18:44:08.646Z,85.84
2022-11-16T18:48:07.973Z,84.15
2022-11-16T18:52:07.602Z,83.80
2022-11-16T18:56:08.764Z,83.21
2022-11-16T19:00:14.785Z,82.50
2022-11-16T19:04:14.901Z,82.25
2022-11-16T19:08:16.202Z,83.81
2022-11-16T19:12:15.513Z,85.13
2022-11-16T19:16:17.354Z,85.81
2022-11-16T19:20:17.161Z,86.24
2022-11-16T19:24:16.816Z,86.93
2022-11-16T19:28:16.401Z,87.28
2022-11-16T19:32:18.204Z,88.37
2022-11-16T19:36:19.353Z,88.32
2022-11-16T19:40:24.713Z,87.67
2022-11-16T19:44:24.705Z,87.20
2022-11-16T19:48:26.642Z,87.86
2022-11-16T19:52:26.353Z,87.46
2022-11-16T19:56:26.635Z,87.85
2022-11-16T20:00:26.169Z,87.15
2022-11-16T20:04:32.453Z,85.45
2022-11-16T20:08:32.182Z,84.62
2022-11-16T20:12:31.819Z,82.38
2022-11-16T20:16:38.439Z,82.47
2022-11-16T20:20:40.902Z,82.38
2022-11-16T20:24:40.481Z,83.81
2022-11-16T20:28:41.749Z,84.30
2022-11-16T20:32:41.453Z,85.07
2022-11-16T20:36:47.645Z,85.92
2022-11-16T20:40:47.252Z,87.02
2022-11-16T20:44:47.078Z,88.40
2022-11-16T20:48:47.206Z,89.04
2022-11-16T20:52:52.663Z,89.81
2022-11-16T20:56:52.677Z,91.15
2022-11-16T21:00:52.932Z,91.00
2022-11-16T21:04:57.462Z,91.95
2022-11-16T21:09:02.074Z,91.43
2022-11-16T21:13:17.986Z,92.38
2022-11-16T21:17:17.693Z,92.41
2022-11-16T21:21:17.493Z,91.48
2022-11-16T21:25:19.360Z,89.47
2022-11-16T21:29:21.872Z,88.02
2022-11-16T21:33:21.497Z,87.32
2022-11-16T21:37:21.301Z,86.37
2022-11-16T21:41:25.865Z,85.59
2022-11-16T21:45:25.858Z,84.19
2022-11-16T21:49:25.554Z,85.02
2022-11-16T21:53:25.156Z,86.90
2022-11-16T21:57:26.922Z,86.95
2022-11-16T22:01:46.629Z,87.36
2022-11-16T22:06:03.404Z,88.88
2022-11-16T22:10:07.193Z,89.29
2022-11-16T22:14:08.915Z,92.07
2022-11-16T22:18:08.609Z,94.37
2022-11-16T22:22:08.155Z,95.96
2022-11-16T22:26:10.585Z,97.25
2022-11-16T22:30:13.431Z,98.05
2022-11-16T22:34:13.017Z,97.96
2022-11-16T22:38:12.663Z,97.64
2022-11-16T22:42:12.393Z,97.02
2022-11-16T22:46:14.209Z,94.89
2022-11-16T22:50:14.329Z,92.76
2022-11-16T22:54:15.281Z,90.48
2022-11-16T22:58:17.094Z,88.38
2022-11-16T23:02:18.917Z,88.38
2022-11-16T23:06:18.829Z,88.06
2022-11-16T23:10:18.609Z,87.72
2022-11-16T23:14:35.080Z,87.42
2022-11-16T23:18:36.875Z,87.77
2022-11-16T23:22:52.461Z,89.27
2022-11-16T23:27:08.592Z,89.97
2022-11-16T23:31:08.476Z,90.89
2022-11-16T23:35:11.010Z,92.82
2022-11-16T23:39:10.900Z,95.09
2022-11-16T23:43:28.629Z,96.97
2022-11-16T23:47:28.236Z,96.62
2022-11-16T23:51:30.017Z,94.53
2022-11-16T23:55:29.994Z,94.03
2022-11-16T23:59:29.561Z,92.62
